createdAt,value
2023-04-25T00:03:52.970Z,63.71
2023-04-25T00:07:57.009Z,64.15
2023-04-25T00:12:00.216Z,64.41
2023-04-25T00:16:05.765Z,63.91
2023-04-25T00:20:11.098Z,64.18
2023-04-25T00:24:14.823Z,64.03
2023-04-25T00:28:18.606Z,64.53
2023-04-25T00:32:25.421Z,64.05
2023-04-25T00:36:30.289Z,63.99
2023-04-25T00:40:34.053Z,64.41
2023-04-25T00:44:39.050Z,64.84
2023-04-25T00:48:44.350Z,65.32
2023-04-25T00:52:47.358Z,65.79
2023-04-25T00:56:50.452Z,65.61
2023-04-25T01:00:55.200Z,65.67
2023-04-25T01:05:00.109Z,65.78
2023-04-25T01:09:06.017Z,65.78
2023-04-25T01:13:10.129Z,65.54
2023-04-25T01:17:15.204Z,66.08
2023-04-25T01:21:20.736Z,65.94
2023-04-25T01:25:24.782Z,66.01
2023-04-25T01:29:29.617Z,66.46
2023-04-25T01:33:32.785Z,67.52
2023-04-25T01:37:39.566Z,67.45
2023-04-25T01:41:42.793Z,67.54
2023-04-25T01:45:47.983Z,67.85
2023-04-25T01:49:51.340Z,68.19
2023-04-25T01:53:58.830Z,67.88
2023-04-25T01:58:10.374Z,67.94
2023-04-25T02:02:15.963Z,68.21
2023-04-25T02:06:19.201Z,67.70
2023-04-25T02:10:24.163Z,67.34
2023-04-25T02:14:27.252Z,67.08
2023-04-25T02:18:33.098Z,66.95
2023-04-25T02:22:36.615Z,66.95
2023-04-25T02:26:43.051Z,66.71
2023-04-25T02:30:46.078Z,66.54
2023-04-25T02:34:49.604Z,65.85
2023-04-25T02:38:55.069Z,65.61
2023-04-25T02:43:00.039Z,65.60
2023-04-25T02:47:03.188Z,65.72
2023-04-25T02:51:07.255Z,65.96
2023-04-25T02:55:12.139Z,66.09
2023-04-25T02:59:17.027Z,66.69
2023-04-25T03:03:22.819Z,66.72
2023-04-25T03:07:26.598Z,67.23
2023-04-25T03:11:30.318Z,67.35
2023-04-25T03:15:35.505Z,67.72
2023-04-25T03:19:44.769Z,68.21
2023-04-25T03:23:50.956Z,67.73
2023-04-25T03:27:54.261Z,68.17
2023-04-25T03:31:58.893Z,68.17
2023-04-25T03:36:02.312Z,67.99
2023-04-25T03:40:06.670Z,68.68
2023-04-25T03:44:10.177Z,68.84
2023-04-25T03:48:15.153Z,68.20
2023-04-25T03:52:18.474Z,68.12
2023-04-25T03:56:22.419Z,68.01
2023-04-25T04:00:25.610Z,68.43
2023-04-25T04:04:30.857Z,68.92
2023-04-25T04:08:34.376Z,69.28
2023-04-25T04:12:38.102Z,69.75
2023-04-25T04:16:41.477Z,69.76
2023-04-25T04:20:46.452Z,69.12
2023-04-25T04:24:51.459Z,69.70
2023-04-25T04:28:55.856Z,68.97
2023-04-25T04:32:59.274Z,69.10
2023-04-25T04:37:05.646Z,69.55
2023-04-25T04:41:09.606Z,69.42
2023-04-25T04:45:16.536Z,69.25
2023-04-25T04:49:19.899Z,68.78
2023-04-25T04:53:24.677Z,69.03
2023-04-25T04:57:27.823Z,69.73
2023-04-25T05:01:31.613Z,68.59
2023-04-25T05:05:34.927Z,68.45
2023-04-25T05:09:40.972Z,67.91
2023-04-25T05:13:43.885Z,67.37
2023-04-25T05:17:47.755Z,67.69
2023-04-25T05:21:50.932Z,67.63
2023-04-25T05:25:58.254Z,67.71
2023-04-25T05:30:02.686Z,68.17
2023-04-25T05:34:05.876Z,67.84
2023-04-25T05:38:09.008Z,67.59
2023-04-25T05:42:13.843Z,66.86
2023-04-25T05:46:18.985Z,66.52
2023-04-25T05:50:22.682Z,65.83
2023-04-25T05:54:25.844Z,63.72
2023-04-25T05:58:31.550Z,64.43
2023-04-25T06:02:34.998Z,64.14
2023-04-25T06:06:39.417Z,64.67
2023-04-25T06:10:42.696Z,65.47
2023-04-25T06:14:47.596Z,65.88
2023-04-25T06:18:50.848Z,65.54
2023-04-25T06:22:55.310Z,65.83
2023-04-25T06:26:58.434Z,66.17
2023-04-25T06:31:03.393Z,65.95
2023-04-25T06:35:07.446Z,65.70
2023-04-25T06:39:12.062Z,65.32
2023-04-25T06:43:15.249Z,63.10
2023-04-25T06:47:20.048Z,61.71
2023-04-25T06:51:24.319Z,61.23
2023-04-25T06:55:27.993Z,61.53
2023-04-25T06:59:31.254Z,62.52
2023-04-25T07:03:36.501Z,61.05
2023-04-25T07:07:40.448Z,60.34
2023-04-25T07:11:44.170Z,57.47
2023-04-25T07:15:49.974Z,58.58
2023-04-25T07:19:55.236Z,58.54
2023-04-25T07:23:59.053Z,56.46
2023-04-25T07:28:02.357Z,54.68
2023-04-25T07:32:06.103Z,55.83
2023-04-25T07:36:13.810Z,54.54
2023-04-25T07:40:17.631Z,54.44
2023-04-25T07:44:21.366Z,55.52
2023-04-25T07:48:24.626Z,56.10
2023-04-25T07:52:29.386Z,54.96
2023-04-25T07:56:45.168Z,56.50
2023-04-25T08:00:55.119Z,57.12
2023-04-25T08:04:58.744Z,56.96
2023-04-25T08:09:03.841Z,57.75
2023-04-25T08:13:07.457Z,58.19
2023-04-25T08:17:11.401Z,60.02
2023-04-25T08:21:15.072Z,60.92
2023-04-25T08:25:20.119Z,62.68
2023-04-25T08:29:25.027Z,61.91
2023-04-25T08:33:28.739Z,63.00
2023-04-25T08:37:32.159Z,64.46
2023-04-25T08:41:39.577Z,62.24
2023-04-25T08:45:44.247Z,64.29
2023-04-25T08:49:48.762Z,62.57
2023-04-25T08:53:57.848Z,61.31
2023-04-25T08:58:07.082Z,59.81
2023-04-25T09:02:12.741Z,57.00
2023-04-25T09:06:17.994Z,53.72
2023-04-25T09:10:21.391Z,57.07
2023-04-25T09:14:29.135Z,52.64
2023-04-25T09:18:34.183Z,47.63
2023-04-25T09:22:38.564Z,45.51
2023-04-25T09:26:42.075Z,45.62
2023-04-25T09:30:48.484Z,44.88
2023-04-25T09:34:53.672Z,47.35
2023-04-25T09:38:57.581Z,52.03
2023-04-25T09:43:01.724Z,49.82
2023-04-25T09:47:06.974Z,51.45
2023-04-25T09:51:11.355Z,49.44
2023-04-25T09:55:14.500Z,46.63
2023-04-25T09:59:21.056Z,47.25
2023-04-25T10:03:30.908Z,49.24
2023-04-25T10:07:39.495Z,45.99
2023-04-25T10:11:43.360Z,46.17
2023-04-25T10:15:47.879Z,45.50
2023-04-25T10:19:55.777Z,45.98
2023-04-25T10:23:59.893Z,47.93
2023-04-25T10:28:06.393Z,50.48
2023-04-25T10:32:13.164Z,49.40
2023-04-25T10:36:20.853Z,49.31
2023-04-25T10:40:25.195Z,49.51
2023-04-25T10:44:30.867Z,52.61
2023-04-25T10:48:34.150Z,54.31
2023-04-25T10:52:42.358Z,54.62
2023-04-25T10:56:45.840Z,50.83
2023-04-25T11:05:00.976Z,52.77
2023-04-25T11:09:14.627Z,51.67
2023-04-25T11:13:18.002Z,50.02
2023-04-25T11:17:22.260Z,50.05
2023-04-25T11:21:26.055Z,51.12
2023-04-25T11:25:33.730Z,51.30
2023-04-25T11:29:38.433Z,53.25
2023-04-25T11:33:42.157Z,54.98
2023-04-25T11:37:47.467Z,54.96
2023-04-25T11:41:52.747Z,56.99
2023-04-25T11:45:56.043Z,59.72
2023-04-25T11:50:01.105Z,63.95
2023-04-25T11:54:04.122Z,63.90
2023-04-25T11:58:10.851Z,62.08
2023-04-25T12:02:26.904Z,61.91
2023-04-25T12:06:31.098Z,62.78
2023-04-25T12:10:34.307Z,59.63
2023-04-25T12:14:39.972Z,55.98
2023-04-25T12:18:43.696Z,59.63
2023-04-25T12:22:48.692Z,57.12
2023-04-25T12:26:53.453Z,56.38
2023-04-25T12:31:13.245Z,57.33
2023-04-25T12:35:16.246Z,53.03
2023-04-25T12:39:21.831Z,55.69
2023-04-25T12:43:25.034Z,54.15
2023-04-25T12:47:36.602Z,52.65
2023-04-25T12:51:40.006Z,50.64
2023-04-25T12:55:44.231Z,49.74
2023-04-25T12:59:48.032Z,50.86
2023-04-25T13:03:53.664Z,50.23
2023-04-25T13:07:56.752Z,51.16
2023-04-25T13:12:00.647Z,50.75
2023-04-25T13:16:04.258Z,51.84
2023-04-25T13:20:12.439Z,56.35
2023-04-25T13:24:15.296Z,56.66
2023-04-25T13:28:18.535Z,58.73
2023-04-25T13:32:21.924Z,57.61
2023-04-25T13:36:29.632Z,57.40
2023-04-25T13:40:33.268Z,56.07
2023-04-25T13:44:37.955Z,55.74
2023-04-25T13:48:47.374Z,55.15
2023-04-25T13:52:52.350Z,54.06
2023-04-25T13:56:59.636Z,53.42
2023-04-25T14:01:04.807Z,54.88
2023-04-25T14:05:09.116Z,56.52
2023-04-25T14:09:14.539Z,57.16
2023-04-25T14:13:19.279Z,56.53
2023-04-25T14:17:22.361Z,56.07
2023-04-25T14:21:25.279Z,56.47
2023-04-25T14:25:30.740Z,57.18
2023-04-25T14:29:33.903Z,56.36
2023-04-25T14:33:38.463Z,56.39
2023-04-25T14:37:41.910Z,55.64
2023-04-25T14:41:46.991Z,56.48
2023-04-25T14:45:50.426Z,55.90
2023-04-25T14:49:56.844Z,55.94
2023-04-25T14:54:00.450Z,54.60
2023-04-25T14:58:05.377Z,55.14
2023-04-25T15:02:08.887Z,55.05
2023-04-25T15:06:11.967Z,54.57
2023-04-25T15:10:17.301Z,54.32
2023-04-25T15:14:23.018Z,54.41
2023-04-25T15:18:26.104Z,54.56
2023-04-25T15:22:30.131Z,55.70
2023-04-25T15:26:33.446Z,55.62
2023-04-25T15:30:40.089Z,55.90
2023-04-25T15:34:43.718Z,55.91
2023-04-25T15:38:52.444Z,54.30
2023-04-25T15:42:56.301Z,54.97
2023-04-25T15:47:01.716Z,53.05
2023-04-25T15:51:04.681Z,53.09
2023-04-25T15:55:09.747Z,53.90
2023-04-25T15:59:12.899Z,53.82
2023-04-25T16:03:18.039Z,52.52
2023-04-25T16:07:21.304Z,52.87
2023-04-25T16:11:24.292Z,53.83
2023-04-25T16:15:27.836Z,53.00
2023-04-25T16:19:32.991Z,51.81
2023-04-25T16:23:36.353Z,52.40
2023-04-25T16:27:40.063Z,53.30
2023-04-25T16:31:43.695Z,54.29
2023-04-25T16:35:50.647Z,55.04
2023-04-25T16:39:53.914Z,55.67
2023-04-25T16:43:58.928Z,56.19
2023-04-25T16:48:02.329Z,56.49
2023-04-25T16:52:07.110Z,56.89
2023-04-25T16:56:10.199Z,55.72
2023-04-25T17:00:15.738Z,55.17
2023-04-25T17:04:19.097Z,55.15
2023-04-25T17:08:24.547Z,55.78
2023-04-25T17:12:27.521Z,56.51
2023-04-25T17:16:37.794Z,57.05
2023-04-25T17:20:41.475Z,56.86
2023-04-25T17:24:46.817Z,57.63
2023-04-25T17:28:50.352Z,57.76
2023-04-25T17:32:54.245Z,58.30
2023-04-25T17:36:57.448Z,57.95
2023-04-25T17:41:02.267Z,57.62
2023-04-25T17:45:06.340Z,58.15
2023-04-25T17:49:09.611Z,60.14
2023-04-25T17:53:12.894Z,60.91
2023-04-25T17:57:19.345Z,62.03
2023-04-25T18:01:22.966Z,62.21
2023-04-25T18:05:29.194Z,62.74
2023-04-25T18:09:35.887Z,62.86
2023-04-25T18:13:41.314Z,63.16
2023-04-25T18:17:44.581Z,64.16
2023-04-25T18:21:50.482Z,65.03
2023-04-25T18:25:57.957Z,64.95
2023-04-25T18:30:02.878Z,66.26
2023-04-25T18:34:06.162Z,66.48
2023-04-25T18:38:10.533Z,66.54
2023-04-25T18:42:18.067Z,66.12
2023-04-25T18:46:24.510Z,64.63
2023-04-25T18:50:29.294Z,65.39
2023-04-25T18:54:33.722Z,65.75
2023-04-25T18:58:40.308Z,66.54
2023-04-25T19:02:45.714Z,67.50
2023-04-25T19:06:51.537Z,67.10
2023-04-25T19:10:55.183Z,67.07
2023-04-25T19:14:58.304Z,68.48
2023-04-25T19:19:03.112Z,69.02
2023-04-25T19:23:06.484Z,68.66
2023-04-25T19:27:10.211Z,68.87
2023-04-25T19:31:13.965Z,68.52
2023-04-25T19:35:20.724Z,68.85
2023-04-25T19:39:24.966Z,69.15
2023-04-25T19:43:28.724Z,69.86
2023-04-25T19:47:32.152Z,70.10
2023-04-25T19:51:38.386Z,69.35
2023-04-25T19:55:41.530Z,69.17
2023-04-25T19:59:48.971Z,68.68
2023-04-25T20:03:53.170Z,68.76
2023-04-25T20:08:01.658Z,69.76
2023-04-25T20:12:06.091Z,69.16
2023-04-25T20:16:09.785Z,69.98
2023-04-25T20:20:13.770Z,69.94
2023-04-25T20:24:19.660Z,70.43
2023-04-25T20:28:23.349Z,70.21
2023-04-25T20:32:28.252Z,70.68
2023-04-25T20:36:32.313Z,70.24
2023-04-25T20:40:37.370Z,69.81
2023-04-25T20:44:41.389Z,69.72
2023-04-25T20:48:44.811Z,69.38
2023-04-25T20:52:49.306Z,69.58
2023-04-25T20:56:55.051Z,69.23
2023-04-25T21:00:58.531Z,69.09
2023-04-25T21:05:03.989Z,69.71
2023-04-25T21:09:07.933Z,70.59
2023-04-25T21:13:13.769Z,71.19
2023-04-25T21:17:17.210Z,71.94
2023-04-25T21:21:20.306Z,71.47
2023-04-25T21:25:30.510Z,71.86
2023-04-25T21:29:35.511Z,71.42
2023-04-25T21:33:38.566Z,70.90
2023-04-25T21:37:42.818Z,71.57
2023-04-25T21:41:46.527Z,71.95
2023-04-25T21:46:11.114Z,71.96
2023-04-25T21:50:15.023Z,72.15
2023-04-25T21:54:21.967Z,72.65
2023-04-25T21:58:25.227Z,72.88
2023-04-25T22:02:31.928Z,72.92
2023-04-25T22:06:35.425Z,72.82
2023-04-25T22:10:40.519Z,72.31
2023-04-25T22:14:44.930Z,71.97
2023-04-25T22:18:50.004Z,72.06
2023-04-25T22:22:53.407Z,72.16
2023-04-25T22:26:56.922Z,72.11
2023-04-25T22:31:02.736Z,72.12
2023-04-25T22:35:09.743Z,71.60
2023-04-25T22:39:15.443Z,72.05
2023-04-25T22:43:18.725Z,72.04
2023-04-25T22:47:23.061Z,72.46
2023-04-25T22:51:27.975Z,72.33
2023-04-25T22:55:31.513Z,72.57
2023-04-25T22:59:36.508Z,71.98
2023-04-25T23:03:40.337Z,71.89
2023-04-25T23:07:46.113Z,72.28
2023-04-25T23:11:53.290Z,72.34
2023-04-25T23:15:57.372Z,72.57
2023-04-25T23:20:00.621Z,72.22
2023-04-25T23:24:06.670Z,71.99
2023-04-25T23:28:09.941Z,71.46
2023-04-25T23:32:14.371Z,71.35
2023-04-25T23:36:21.337Z,71.45
2023-04-25T23:40:26.838Z,71.52
2023-04-25T23:44:30.500Z,71.91
2023-04-25T23:48:34.231Z,71.96
2023-04-25T23:52:38.010Z,71.94
2023-04-25T23:56:43.858Z,72.74
